map of KGEV home
Great Circle Mapper logo
KGEV - Airport
Location
City:  Jefferson, North Carolina, United States
Name:Ashe County Airport
ICAO:KGEV
FAA:GEV

Details
Type:Airport (Airfield)
Use:Public/Civil
Latitude:3625'57"N (36.432444)
Longitude:8125'11"W (-81.419693)
Datum:WGS 1984
Elevation:3178 ft (969 m)
Runways:1
Longest:4296 × 75 ft (1309 × 23 m), paved

Time
Time Zone:UTC-5 (DST-4)
Local Time:

Weather
METAR:KGEV 011255Z AUTO 32011G18KT 2SM -SN SCT013 OVC022 00/M02 A2979 RMK AO2 T00001016

Related Locations
Nearby:
Farthest:MGV: 11494 mi / 18497 km
Margaret River, WA, AU

Find:

   beyond  
but within

Other Information
Maps:
NOTAMs:
Links:
Sources:

  
flag of United States
flag of North Carolina
  

Sectional Chart

Flight Planning
at skyvector.com

Satellite Image

Google Maps Satellite View

 

Copyright © 2004-2014 Karl L. Swartz. All rights reserved.
The Great Circle Mapper name and logo are trademarks of the Great Circle Mapper.
All other trademarks mentioned herein belong to their respective owners.
Please see credits for attibutions and further copyright information.

  Follow gcmap on Facebook Follow gcmap on Twitter

hCard Microformat

Geo Microformat